Seattle, Washington
Traffic Map
Current Weather Conditions
Seattle, Washington
Overcast
Overcast

Feels Like: 8°
Wind Chill: Ceiling: 3900
Heat Index: Visibility: 10mi
Dew Point: Wind: 3mph
Humidity: 74% Direction: 100° (E)
Pressure: 29.91in Gusts: 0mph
Raw Report DataKBFI 251053Z 10003KT 10SM BKN039 BKN047 OVC060 08/04 A2991 RMK AO2 SLP129 T00830039
Traffic Incident Summary
Active as of:
Severity:
Category:
InformationThere was an issue retrieving the traffic information for this location. Please try a different location or try again shortly.
Advertisements
Track Severe Weather on mobile